Time;durP1;ratioP1;P1;durP2;ratioP2;P2;SDS_P1;SDS_P2;PMS_P1;PMS_P2;Temp;Humidity;BMP_temperature;BMP_pressure;BME280_temperature;BME280_humidity;BME280_pressure;Samples;Min_cycle;Max_cycle;Signal;HPM_P1;HPM_P2
2023/12/23 00:01:15;;;;;;;3.10;2.10;;;;;;;13.17;55.19;98107.13;6971617;28;20223;-79
2023/12/23 00:04:37;;;;;;;3.30;2.33;;;;;;;13.06;55.73;98113.38;6971481;28;20615;-78
2023/12/23 00:07:59;;;;;;;3.20;1.80;;;;;;;13.34;54.66;98125.06;6971034;28;20293;-80
2023/12/23 00:11:21;;;;;;;3.80;2.27;;;;;;;13.03;55.66;98152.53;6971102;28;20317;-79
2023/12/23 00:14:42;;;;;;;2.40;1.90;;;;;;;12.67;56.22;98130.28;6971207;28;20714;-79
2023/12/23 00:18:04;;;;;;;2.57;2.10;;;;;;;12.94;56.12;98147.69;6970769;28;20371;-78
2023/12/23 00:21:26;;;;;;;4.13;2.10;;;;;;;12.95;56.02;98142.09;6970799;28;20321;-79
2023/12/23 00:24:49;;;;;;;4.47;2.07;;;;;;;12.78;57.11;98160.06;6970702;28;20210;-78
2023/12/23 00:28:10;;;;;;;6.17;2.30;;;;;;;12.51;57.84;98136.41;6970300;28;20339;-81
2023/12/23 00:31:32;;;;;;;3.17;2.17;;;;;;;12.75;57.50;98171.31;6970454;28;20814;-78
2023/12/23 00:34:53;;;;;;;3.57;1.87;;;;;;;12.82;57.24;98171.22;6970575;28;20347;-78
2023/12/23 00:38:15;;;;;;;2.53;2.07;;;;;;;12.66;57.70;98167.34;6969934;28;20361;-80
2023/12/23 00:41:38;;;;;;;5.27;2.27;;;;;;;12.80;58.05;98176.06;6970238;28;20858;-78
2023/12/23 00:44:59;;;;;;;3.00;1.90;;;;;;;12.60;58.17;98179.09;6970316;28;20209;-79
2023/12/23 00:48:21;;;;;;;3.03;2.10;;;;;;;13.05;57.37;98184.78;6970232;28;20206;-83
2023/12/23 00:51:42;;;;;;;3.73;2.20;;;;;;;12.78;58.12;98211.44;6970097;28;20360;-78
2023/12/23 00:55:04;;;;;;;3.17;2.07;;;;;;;12.51;59.06;98198.59;6970082;28;20210;-79
2023/12/23 00:58:27;;;;;;;4.20;1.93;;;;;;;12.01;60.90;98189.13;6969979;28;20298;-78
2023/12/23 01:01:49;;;;;;;4.37;2.10;;;;;;;12.54;60.03;98214.34;6969863;28;20226;-79
2023/12/23 01:05:10;;;;;;;3.77;2.40;;;;;;;12.14;61.31;98213.25;6968854;28;20296;-79
2023/12/23 01:08:31;;;;;;;4.40;2.00;;;;;;;12.25;60.27;98207.91;6969661;28;20367;-80
2023/12/23 01:11:53;;;;;;;4.13;2.50;;;;;;;12.16;60.95;98230.09;6969572;28;20230;-78
2023/12/23 01:15:16;;;;;;;3.20;1.80;;;;;;;12.09;60.47;98226.66;6969629;28;20297;-79
2023/12/23 01:18:37;;;;;;;3.23;2.10;;;;;;;12.36;59.98;98217.94;6969374;28;20838;-79
2023/12/23 01:21:59;;;;;;;2.93;1.97;;;;;;;12.39;59.74;98230.19;6969305;28;20307;-81
2023/12/23 01:25:22;;;;;;;4.27;1.90;;;;;;;12.11;60.17;98219.94;6969279;28;20297;-78
2023/12/23 01:28:43;;;;;;;3.07;2.03;;;;;;;12.53;58.31;98237.03;6969271;28;20661;-79
2023/12/23 01:32:07;;;;;;;3.30;2.10;;;;;;;12.55;58.05;98251.97;6968530;28;20364;-79
2023/12/23 01:35:28;;;;;;;2.83;2.07;;;;;;;12.68;57.26;98232.03;6968916;28;20701;-80
2023/12/23 01:38:50;;;;;;;3.27;2.20;;;;;;;12.51;57.78;98253.47;6969079;28;20279;-78
2023/12/23 01:42:11;;;;;;;2.13;2.00;;;;;;;12.38;57.87;98252.81;6969095;28;20317;-79
2023/12/23 01:45:33;;;;;;;2.57;1.93;;;;;;;12.07;58.81;98255.75;6968858;28;20321;-79
2023/12/23 01:48:56;;;;;;;2.40;1.87;;;;;;;12.27;58.23;98273.38;6968276;28;20581;-83
2023/12/23 01:52:18;;;;;;;2.97;1.70;;;;;;;12.25;58.66;98266.53;6967720;28;20313;-79
2023/12/23 01:55:39;;;;;;;2.30;1.70;;;;;;;12.57;57.82;98279.59;6968361;28;20375;-79
2023/12/23 01:59:02;;;;;;;2.00;1.57;;;;;;;12.88;57.09;98290.16;6968688;28;20649;-80
2023/12/23 02:02:24;;;;;;;3.23;2.10;;;;;;;12.44;58.71;98287.91;6968767;28;20222;-79
2023/12/23 02:05:47;;;;;;;7.03;2.60;;;;;;;12.37;58.50;98279.06;6968180;28;20210;-79
2023/12/23 02:09:10;;;;;;;4.30;2.20;;;;;;;12.60;58.14;98283.72;6967890;28;20822;-81
2023/12/23 02:12:35;;;;;;;3.90;2.13;;;;;;;12.60;57.23;98249.41;6968232;28;20253;-81
2023/12/23 02:15:57;;;;;;;4.13;2.23;;;;;;;12.15;58.27;98279.78;6968584;28;20198;-78
2023/12/23 02:19:19;;;;;;;2.30;2.10;;;;;;;12.38;57.94;98275.28;6973827;28;20253;-78
2023/12/23 02:22:42;;;;;;;4.87;2.23;;;;;;;12.24;58.07;98278.41;6974060;28;20364;-79
2023/12/23 02:26:05;;;;;;;6.47;2.40;;;;;;;12.40;57.87;98267.78;6973953;28;20305;-79
2023/12/23 02:29:28;;;;;;;4.10;2.17;;;;;;;12.65;57.30;98275.75;6972975;28;20714;-80
2023/12/23 02:32:49;;;;;;;4.67;2.50;;;;;;;12.45;57.90;98277.91;6973716;28;20757;-79
2023/12/23 02:36:11;;;;;;;4.10;2.00;;;;;;;12.43;58.16;98299.78;6973668;28;20748;-79
2023/12/23 02:39:33;;;;;;;5.17;2.43;;;;;;;12.09;58.26;98305.00;6973155;28;20316;-79
2023/12/23 02:42:55;;;;;;;2.83;1.93;;;;;;;12.03;59.22;98305.94;6973508;28;20640;-80
2023/12/23 02:46:16;;;;;;;3.20;1.80;;;;;;;12.27;59.14;98313.09;6973162;28;20293;-81
2023/12/23 02:49:38;;;;;;;2.40;1.80;;;;;;;12.11;59.32;98314.53;6973173;28;20364;-80
2023/12/23 02:53:00;;;;;;;5.27;2.10;;;;;;;12.49;58.28;98276.38;6973041;28;20258;-79
2023/12/23 02:56:22;;;;;;;2.83;2.63;;;;;;;12.06;59.77;98309.00;6972901;28;20222;-79
2023/12/23 02:59:44;;;;;;;4.20;1.90;;;;;;;12.51;58.04;98307.53;6973127;28;20787;-78
2023/12/23 03:03:05;;;;;;;3.60;1.90;;;;;;;12.57;57.83;98305.81;6971970;28;20222;-78
2023/12/23 03:06:27;;;;;;;7.30;2.40;;;;;;;12.21;58.04;98301.31;6971905;28;20302;-79
2023/12/23 03:09:48;;;;;;;3.60;2.03;;;;;;;12.30;57.75;98328.84;6972980;28;20734;-79
2023/12/23 03:13:11;;;;;;;4.17;1.97;;;;;;;12.61;57.15;98317.81;6972846;28;20367;-79
2023/12/23 03:16:35;;;;;;;3.80;2.10;;;;;;;12.97;56.11;98315.84;6972850;28;20750;-80
2023/12/23 03:19:57;;;;;;;4.37;2.00;;;;;;;12.70;56.64;98313.75;6972582;28;20591;-79
2023/12/23 03:23:18;;;;;;;4.50;2.50;;;;;;;12.79;55.94;98298.81;6971292;28;20316;-78
2023/12/23 03:26:40;;;;;;;3.17;2.10;;;;;;;12.63;55.95;98321.13;6972233;28;20301;-79
2023/12/23 03:30:03;;;;;;;3.40;1.80;;;;;;;12.47;56.73;98310.94;6972066;28;20744;-79
2023/12/23 03:33:24;;;;;;;2.30;2.10;;;;;;;12.44;56.34;98312.22;6972017;28;20317;-79
2023/12/23 03:36:46;;;;;;;4.57;2.73;;;;;;;12.32;57.04;98305.09;6972131;28;20210;-80
2023/12/23 03:40:08;;;;;;;3.43;2.00;;;;;;;12.27;56.74;98292.28;6972054;28;20210;-79
2023/12/23 03:43:30;;;;;;;3.87;2.13;;;;;;;12.45;56.32;98294.13;6971112;28;20257;-79
2023/12/23 03:46:53;;;;;;;3.87;2.03;;;;;;;11.76;57.00;98234.34;6972089;28;20297;-78
2023/12/23 03:50:14;;;;;;;3.07;2.00;;;;;;;12.33;56.84;98317.59;6971879;28;20289;-79
2023/12/23 03:53:36;;;;;;;3.13;1.93;;;;;;;12.82;55.27;98318.16;6971840;28;20340;-80
2023/12/23 03:56:57;;;;;;;6.53;1.93;;;;;;;12.68;55.70;98322.06;6971095;28;20283;-79
2023/12/23 04:00:19;;;;;;;3.97;2.40;;;;;;;12.48;56.43;98313.44;6970438;28;20210;-78
2023/12/23 04:03:42;;;;;;;4.17;2.03;;;;;;;12.77;56.20;98296.38;6971429;28;20692;-78
2023/12/23 04:07:04;;;;;;;2.03;1.90;;;;;;;12.69;56.19;98312.09;6971736;28;20240;-78
2023/12/23 04:10:25;;;;;;;4.30;2.07;;;;;;;12.63;56.30;98299.50;6971579;28;20355;-78
2023/12/23 04:13:47;;;;;;;2.27;1.83;;;;;;;12.76;55.72;98294.69;6971328;28;20391;-79
2023/12/23 04:17:08;;;;;;;3.53;2.00;;;;;;;12.45;56.59;98300.34;6971178;28;20230;-79
2023/12/23 04:20:31;;;;;;;3.27;1.93;;;;;;;12.83;55.63;98300.84;6970803;28;20274;-78
2023/12/23 04:23:53;;;;;;;3.83;2.60;;;;;;;13.01;55.10;98286.44;6970165;28;20839;-78
2023/12/23 04:27:14;;;;;;;4.17;2.07;;;;;;;12.91;54.99;98278.84;6970824;28;20344;-79
2023/12/23 04:30:36;;;;;;;6.97;2.57;;;;;;;12.95;54.34;98279.22;6970488;28;20210;-77
2023/12/23 04:33:57;;;;;;;2.43;1.90;;;;;;;12.79;54.97;98277.19;6970746;28;20789;-79
2023/12/23 04:37:20;;;;;;;2.73;1.97;;;;;;;12.76;54.86;98291.19;6970450;28;20230;-80
2023/12/23 04:40:41;;;;;;;2.33;2.10;;;;;;;12.99;54.28;98302.09;6968770;28;20206;-79
2023/12/23 04:44:03;;;;;;;3.43;1.83;;;;;;;12.68;54.92;98292.31;6970435;28;20389;-81
2023/12/23 04:47:25;;;;;;;3.63;1.87;;;;;;;12.93;54.47;98284.84;6970550;28;20571;-80
2023/12/23 04:50:47;;;;;;;3.80;1.87;;;;;;;13.38;52.85;98285.16;6969886;28;20293;-80
2023/12/23 04:54:09;;;;;;;3.43;2.00;;;;;;;12.80;53.40;98266.13;6970124;28;20661;-79
2023/12/23 04:57:31;;;;;;;2.97;1.63;;;;;;;13.45;52.38;98294.81;6970218;28;20275;-79
2023/12/23 05:00:52;;;;;;;3.37;2.10;;;;;;;13.06;53.00;98298.22;6968690;28;20259;-79
2023/12/23 05:04:14;;;;;;;4.83;1.83;;;;;;;12.90;53.22;98304.28;6969642;28;20352;-79
2023/12/23 05:07:35;;;;;;;2.33;2.00;;;;;;;13.25;51.72;98282.69;6969763;28;20340;-80
2023/12/23 05:10:58;;;;;;;2.27;1.70;;;;;;;13.21;51.78;98286.94;6969769;28;20359;-78
2023/12/23 05:14:20;;;;;;;3.50;1.90;;;;;;;13.19;51.57;98289.88;6969621;28;20263;-82
2023/12/23 05:17:41;;;;;;;3.07;1.80;;;;;;;13.17;51.67;98286.56;6968188;28;20372;-79
2023/12/23 05:21:03;;;;;;;2.63;2.00;;;;;;;13.10;51.30;98291.28;6969174;28;20206;-79
2023/12/23 05:24:24;;;;;;;2.50;1.63;;;;;;;12.88;51.55;98292.88;6969013;28;20214;-80
2023/12/23 05:27:47;;;;;;;2.67;1.67;;;;;;;12.93;51.63;98279.44;6969569;28;20289;-79
2023/12/23 05:31:08;;;;;;;3.53;1.93;;;;;;;13.27;51.14;98276.00;6969390;28;20226;-80
2023/12/23 05:34:30;;;;;;;2.70;1.63;;;;;;;12.75;51.99;98276.81;6969232;28;20266;-78
2023/12/23 05:37:54;;;;;;;2.47;1.53;;;;;;;13.05;51.52;98284.91;6967824;28;20316;-78
2023/12/23 05:41:16;;;;;;;1.60;1.30;;;;;;;13.44;52.16;98292.34;6968700;28;20356;-77
2023/12/23 05:44:38;;;;;;;1.70;1.50;;;;;;;13.47;50.70;98276.47;6969113;28;20814;-80
2023/12/23 05:48:00;;;;;;;2.60;1.60;;;;;;;13.03;51.89;98292.44;6969146;28;20206;-78
2023/12/23 05:51:21;;;;;;;1.93;1.50;;;;;;;13.05;52.19;98277.59;6953118;28;20230;-77
2023/12/23 05:54:43;;;;;;;1.43;1.33;;;;;;;13.15;52.02;98282.47;6940785;28;20356;-77
2023/12/23 05:58:04;;;;;;;1.80;1.70;;;;;;;13.53;51.56;98275.53;6941641;28;20346;-78
2023/12/23 06:01:27;;;;;;;2.07;1.50;;;;;;;13.68;51.32;98277.75;6941364;28;20651;-76
2023/12/23 06:04:49;;;;;;;1.60;1.50;;;;;;;12.95;53.27;98262.97;6948970;28;20297;-79
2023/12/23 06:08:10;;;;;;;2.60;1.50;;;;;;;13.01;53.66;98271.03;6965191;28;20567;-77
2023/12/23 06:11:32;;;;;;;1.57;1.47;;;;;;;13.03;53.88;98278.91;6968146;28;20237;-79
2023/12/23 06:14:56;;;;;;;1.47;1.20;;;;;;;12.78;54.48;98270.97;6968213;28;20297;-80
2023/12/23 06:18:19;;;;;;;1.40;1.40;;;;;;;12.97;54.61;98259.03;6968556;28;20234;-79
2023/12/23 06:21:46;;;;;;;1.63;1.30;;;;;;;13.05;54.66;98252.44;6967583;28;20308;-80
2023/12/23 06:25:08;;;;;;;2.57;1.97;;;;;;;12.84;55.14;98252.97;6966534;28;21139;-79
2023/12/23 06:28:30;;;;;;;1.27;1.27;;;;;;;12.55;55.64;98251.97;6966348;28;20336;-78
2023/12/23 06:31:51;;;;;;;1.40;1.40;;;;;;;12.53;55.96;98243.28;6964642;28;20636;-79
2023/12/23 06:35:14;;;;;;;1.40;1.30;;;;;;;12.96;55.50;98238.44;6967887;28;20259;-77
2023/12/23 06:38:36;;;;;;;1.30;1.30;;;;;;;12.90;55.23;98262.84;6967798;28;20757;-77
2023/12/23 06:41:58;;;;;;;1.40;1.40;;;;;;;12.28;56.64;98247.97;6967918;28;20259;-77
2023/12/23 06:45:19;;;;;;;1.20;1.20;;;;;;;12.68;55.75;98264.47;6968163;28;20209;-77
2023/12/23 06:48:41;;;;;;;1.20;1.20;;;;;;;13.07;54.83;98263.84;6966459;28;20203;-78
2023/12/23 06:52:04;;;;;;;1.20;1.20;;;;;;;12.64;55.44;98244.34;6965581;28;20317;-77
2023/12/23 06:55:25;;;;;;;1.87;1.77;;;;;;;12.96;55.30;98245.72;6952809;28;20357;-77
2023/12/23 06:58:47;;;;;;;1.57;1.47;;;;;;;13.03;54.97;98236.44;6942682;28;20279;-77
2023/12/23 07:02:08;;;;;;;1.13;1.13;;;;;;;12.70;55.93;98235.31;6952541;28;20634;-77
2023/12/23 07:05:30;;;;;;;1.30;1.30;;;;;;;12.38;57.22;98239.31;6953822;28;20296;-77
2023/12/23 07:08:53;;;;;;;1.47;1.40;;;;;;;12.40;56.94;98245.34;6972873;28;20297;-78
2023/12/23 07:12:17;;;;;;;1.03;1.03;;;;;;;12.48;56.61;98236.88;6971063;28;20313;-77
2023/12/23 07:15:39;;;;;;;1.10;1.10;;;;;;;13.00;55.35;98246.91;6972147;28;20213;-79
2023/12/23 07:19:00;;;;;;;1.30;1.30;;;;;;;12.92;55.19;98237.22;6972217;28;20288;-76
2023/12/23 07:22:22;;;;;;;1.70;1.23;;;;;;;13.00;55.48;98245.03;6971029;28;20316;-78
2023/12/23 07:25:44;;;;;;;1.20;1.20;;;;;;;13.02;55.30;98250.19;6966115;28;20695;-78
2023/12/23 07:29:06;;;;;;;1.23;1.23;;;;;;;12.58;56.28;98239.88;6965612;28;20292;-77
2023/12/23 07:32:28;;;;;;;1.83;1.40;;;;;;;12.66;56.09;98242.22;6958538;28;20230;-77
2023/12/23 07:35:49;;;;;;;1.30;1.30;;;;;;;12.68;56.18;98250.94;6971491;28;20206;-79
2023/12/23 07:39:11;;;;;;;1.23;1.23;;;;;;;13.08;54.78;98238.44;6971358;28;20366;-77
2023/12/23 07:42:33;;;;;;;1.30;1.30;;;;;;;12.71;55.43;98245.91;6972006;28;20283;-78
2023/12/23 07:45:55;;;;;;;1.10;1.10;;;;;;;12.67;55.56;98269.03;6966780;28;20285;-79
2023/12/23 07:49:16;;;;;;;2.10;1.30;;;;;;;12.66;55.79;98253.03;6966770;28;20202;-77
2023/12/23 07:52:39;;;;;;;1.10;1.10;;;;;;;12.46;55.67;98266.84;6970164;28;20283;-77
2023/12/23 07:56:00;;;;;;;1.40;1.40;;;;;;;12.75;55.07;98279.53;6971415;28;20619;-77
2023/12/23 07:59:23;;;;;;;1.40;1.40;;;;;;;12.73;55.07;98281.63;6967996;28;20322;-81
2023/12/23 08:02:45;;;;;;;1.10;1.10;;;;;;;12.94;54.19;98286.53;6955111;28;20644;-81
2023/12/23 08:06:06;;;;;;;1.40;1.40;;;;;;;12.78;54.48;98272.81;6960586;28;21672;-81
2023/12/23 08:09:28;;;;;;;1.40;1.30;;;;;;;12.93;54.25;98284.03;6969207;28;20317;-78
2023/12/23 08:12:49;;;;;;;1.13;1.13;;;;;;;12.96;54.28;98270.06;6961755;28;20808;-77
2023/12/23 08:16:15;;;;;;;1.63;1.53;;;;;;;12.75;54.64;98278.72;6962963;28;20297;-80
2023/12/23 08:19:37;;;;;;;1.97;1.77;;;;;;;12.74;55.49;98280.59;6964655;28;20297;-81
2023/12/23 08:22:58;;;;;;;1.10;1.10;;;;;;;12.78;55.32;98283.66;6959603;28;20226;-82
2023/12/23 08:26:20;;;;;;;1.20;1.20;;;;;;;12.76;54.93;98294.69;6970002;28;20214;-82
2023/12/23 08:29:41;;;;;;;1.33;1.33;;;;;;;13.02;54.59;98278.09;6969039;28;20202;-82
2023/12/23 08:33:04;;;;;;;1.23;1.23;;;;;;;13.00;54.41;98272.09;6958840;28;20234;-82
2023/12/23 08:36:26;;;;;;;1.67;1.30;;;;;;;13.34;53.45;98273.97;6970969;28;20710;-79
2023/12/23 08:39:47;;;;;;;1.57;1.47;;;;;;;13.54;52.91;98279.03;6969431;28;20324;-80
2023/12/23 08:43:09;;;;;;;1.63;1.53;;;;;;;13.47;52.23;98257.53;6952733;28;20259;-82
2023/12/23 08:46:31;;;;;;;1.37;1.27;;;;;;;12.95;53.08;98281.91;6968608;28;20202;-81
2023/12/23 08:49:54;;;;;;;2.10;2.00;;;;;;;13.19;53.72;98278.22;6965926;28;20267;-81
2023/12/23 08:53:16;;;;;;;1.80;1.70;;;;;;;13.72;53.26;98279.75;6958612;28;20223;-80
2023/12/23 08:56:37;;;;;;;1.70;1.60;;;;;;;13.61;52.88;98277.88;6949023;28;20668;-80
2023/12/23 09:00:01;;;;;;;2.63;2.53;;;;;;;13.14;54.80;98291.63;6968060;28;20287;-81
2023/12/23 09:03:22;;;;;;;1.30;1.20;;;;;;;13.52;51.65;98284.69;6969566;28;20226;-78
2023/12/23 09:06:45;;;;;;;1.50;1.50;;;;;;;13.42;52.38;98280.94;6966314;28;20210;-81
2023/12/23 09:10:08;;;;;;;1.53;1.50;;;;;;;13.76;52.91;98270.06;6967491;28;20198;-78
2023/12/23 09:13:30;;;;;;;1.83;1.73;;;;;;;13.17;53.92;98245.97;6968194;28;20263;-81
2023/12/23 09:16:51;;;;;;;6.20;5.27;;;;;;;13.23;53.95;98263.16;6969228;28;20332;-79
2023/12/23 09:20:13;;;;;;;3.73;2.90;;;;;;;13.59;52.47;98281.88;6969176;28;20233;-79
2023/12/23 09:23:35;;;;;;;1.80;1.70;;;;;;;13.43;53.49;98290.69;6968999;28;20254;-77
2023/12/23 09:26:57;;;;;;;1.83;1.80;;;;;;;13.79;51.88;98299.41;6965406;28;20355;-76
2023/12/23 09:30:18;;;;;;;1.27;1.27;;;;;;;13.55;52.27;98302.34;6966647;28;20285;-79
2023/12/23 09:33:40;;;;;;;1.30;1.30;;;;;;;13.61;52.03;98304.97;6960802;28;20360;-80
2023/12/23 09:37:02;;;;;;;1.40;1.30;;;;;;;13.69;51.20;98307.28;6942265;28;20302;-78
2023/12/23 09:40:24;;;;;;;1.10;1.10;;;;;;;13.50;51.66;98324.75;6958517;28;20317;-78
2023/12/23 09:43:46;;;;;;;1.20;1.20;;;;;;;13.47;51.54;98336.06;6964488;28;20230;-78
2023/12/23 09:47:08;;;;;;;1.30;1.30;;;;;;;13.65;50.82;98335.94;6948475;28;20663;-77
2023/12/23 09:50:29;;;;;;;1.50;1.40;;;;;;;13.23;51.71;98318.09;6969470;28;20211;-78
2023/12/23 09:53:55;;;;;;;1.40;1.40;;;;;;;13.58;50.61;98326.28;6969334;28;20284;-78
2023/12/23 09:57:18;;;;;;;1.30;1.30;;;;;;;12.92;52.27;98333.81;6968149;28;20788;-79
2023/12/23 10:00:40;;;;;;;1.20;1.20;;;;;;;13.24;51.32;98298.13;6966934;28;20237;-79
2023/12/23 10:04:01;;;;;;;1.10;1.10;;;;;;;13.14;51.84;98324.94;6968352;28;20278;-78
2023/12/23 10:07:23;;;;;;;1.20;1.20;;;;;;;13.25;50.97;98315.19;6968900;28;20691;-77
2023/12/23 10:10:46;;;;;;;22.40;12.47;;;;;;;13.19;51.47;98329.66;6967741;28;20260;-77
2023/12/23 10:14:09;;;;;;;1.33;1.33;;;;;;;13.63;50.31;98323.69;6968692;28;20241;-78
2023/12/23 10:17:32;;;;;;;2.07;1.30;;;;;;;13.08;51.40;98303.38;6968371;28;20243;-77
2023/12/23 10:20:53;;;;;;;1.20;1.20;;;;;;;12.94;51.64;98337.09;6967270;28;20230;-77
2023/12/23 10:24:15;;;;;;;1.37;1.37;;;;;;;13.21;51.56;98335.69;6967076;28;20206;-78
2023/12/23 10:27:41;;;;;;;1.10;1.10;;;;;;;13.36;51.00;98330.63;6968360;28;20568;-77
2023/12/23 10:31:04;;;;;;;1.80;1.70;;;;;;;13.23;50.94;98338.97;6968179;28;20368;-77
2023/12/23 10:34:26;;;;;;;1.67;1.67;;;;;;;13.23;50.76;98326.22;6967981;28;20206;-77
2023/12/23 10:37:51;;;;;;;1.53;1.47;;;;;;;13.90;49.77;98316.69;6968555;28;20301;-78
2023/12/23 10:41:19;;;;;;;1.20;1.20;;;;;;;13.45;50.79;98340.06;6971826;28;20227;-82
2023/12/23 10:44:42;;;;;;;1.00;1.00;;;;;;;13.40;50.83;98320.97;6975409;28;20742;-78
2023/12/23 10:48:07;;;;;;;1.10;1.10;;;;;;;13.22;51.28;98332.72;6974569;28;20290;-78
2023/12/23 10:51:29;;;;;;;1.10;1.10;;;;;;;13.59;50.62;98325.22;6975913;28;20309;-79
2023/12/23 10:54:52;;;;;;;1.37;1.37;;;;;;;13.43;50.46;98329.44;6968697;28;20249;-81
2023/12/23 10:58:13;;;;;;;1.20;1.20;;;;;;;14.08;49.46;98332.81;6977466;28;20238;-79
2023/12/23 11:01:37;;;;;;;1.30;1.30;;;;;;;13.61;50.70;98331.22;6969581;28;20267;-79
2023/12/23 11:05:02;;;;;;;1.40;1.40;;;;;;;13.19;50.84;98335.91;6975213;28;20310;-79
2023/12/23 11:08:25;;;;;;;1.27;1.27;;;;;;;13.17;51.53;98335.28;6955000;28;20210;-79
2023/12/23 11:11:47;;;;;;;1.10;1.10;;;;;;;12.83;52.31;98322.50;6968777;28;20253;-79
2023/12/23 11:15:09;;;;;;;1.10;1.10;;;;;;;13.15;51.62;98321.16;6970122;28;20242;-79
2023/12/23 11:18:31;;;;;;;1.20;1.20;;;;;;;13.13;51.34;98339.53;6972581;28;20211;-78
2023/12/23 11:22:25;;;;;;;1.30;1.30;;;;;;;13.21;51.42;98339.19;6966397;28;20326;-78
2023/12/23 11:25:46;;;;;;;1.00;1.00;;;;;;;12.78;51.92;98335.03;6972612;28;20210;-80
2023/12/23 11:29:08;;;;;;;1.17;1.17;;;;;;;13.25;51.29;98344.97;6967054;28;20336;-77
2023/12/23 11:32:36;;;;;;;1.50;1.40;;;;;;;12.92;51.46;98336.53;6966104;28;20688;-78
2023/12/23 11:35:59;;;;;;;1.10;1.10;;;;;;;13.39;50.97;98333.69;6972906;28;20213;-77
2023/12/23 11:39:23;;;;;;;1.30;1.20;;;;;;;13.56;49.98;98329.22;6974689;28;20313;-78
2023/12/23 11:42:44;;;;;;;1.47;1.30;;;;;;;13.37;50.16;98337.69;6969635;28;20712;-77
2023/12/23 11:46:06;;;;;;;1.30;1.20;;;;;;;13.89;48.85;98337.56;6964766;28;20282;-78
2023/12/23 11:49:27;;;;;;;0.90;0.90;;;;;;;13.63;49.49;98337.25;6964952;28;20742;-77
2023/12/23 11:52:49;;;;;;;1.20;1.20;;;;;;;13.53;49.70;98323.44;6970139;28;20303;-78
2023/12/23 11:56:12;;;;;;;1.70;1.60;;;;;;;13.44;50.46;98357.34;6957318;28;20283;-78
2023/12/23 11:59:33;;;;;;;1.27;1.27;;;;;;;13.71;49.46;98345.84;6970896;28;20234;-78
2023/12/23 12:02:55;;;;;;;1.20;1.20;;;;;;;13.60;49.63;98345.81;6967061;28;20303;-79
2023/12/23 12:06:16;;;;;;;1.30;1.30;;;;;;;13.72;49.32;98354.78;6971075;28;20202;-78
2023/12/23 12:09:38;;;;;;;2.13;2.00;;;;;;;13.46;49.95;98366.06;6969663;28;20346;-78
2023/12/23 12:13:01;;;;;;;1.50;1.50;;;;;;;13.82;49.20;98345.00;6970273;28;20252;-78
2023/12/23 12:16:22;;;;;;;1.30;1.30;;;;;;;13.37;50.10;98343.94;6968716;28;20320;-78
2023/12/23 12:19:44;;;;;;;1.20;1.20;;;;;;;13.44;50.00;98341.94;6963589;28;20222;-78
2023/12/23 12:23:06;;;;;;;1.10;1.10;;;;;;;13.83;49.16;98356.66;6956874;28;20223;-78
2023/12/23 12:26:27;;;;;;;1.13;1.13;;;;;;;13.18;50.39;98369.44;6943149;28;20203;-78
2023/12/23 12:29:50;;;;;;;1.10;1.10;;;;;;;13.52;49.98;98373.25;6942607;28;20715;-78
2023/12/23 12:33:12;;;;;;;1.63;1.57;;;;;;;13.54;50.00;98344.06;6959195;28;20229;-78
2023/12/23 12:36:33;;;;;;;1.20;1.20;;;;;;;13.49;49.86;98360.16;6969075;28;20245;-78
2023/12/23 12:39:55;;;;;;;1.17;1.17;;;;;;;13.30;50.00;98350.50;6969230;28;20234;-78
2023/12/23 12:43:17;;;;;;;1.00;1.00;;;;;;;12.96;50.89;98330.44;6964894;28;20724;-78
2023/12/23 12:46:39;;;;;;;1.80;1.30;;;;;;;13.39;50.03;98349.13;6970999;28;20348;-78
2023/12/23 12:50:02;;;;;;;1.70;1.60;;;;;;;13.84;49.11;98359.13;6967156;28;20259;-78
2023/12/23 12:53:23;;;;;;;1.40;1.33;;;;;;;13.63;49.75;98354.28;6968961;28;20700;-77
2023/12/23 12:56:45;;;;;;;1.60;1.10;;;;;;;13.32;50.49;98337.53;6969927;28;20376;-78
2023/12/23 13:00:09;;;;;;;1.10;1.10;;;;;;;13.86;48.96;98343.44;6969481;28;20226;-78
2023/12/23 13:03:32;;;;;;;1.67;1.57;;;;;;;13.91;48.92;98351.69;6969860;28;20234;-78
2023/12/23 13:06:53;;;;;;;1.20;1.20;;;;;;;13.91;48.91;98356.28;6965283;28;20356;-78
2023/12/23 13:10:15;;;;;;;1.20;1.20;;;;;;;13.83;49.28;98357.50;6970612;28;20289;-81
2023/12/23 13:13:37;;;;;;;1.10;1.10;;;;;;;13.77;49.13;98347.59;6969856;28;20360;-78
2023/12/23 13:16:58;;;;;;;1.70;1.60;;;;;;;14.06;48.57;98354.75;6972177;28;20206;-79
2023/12/23 13:20:21;;;;;;;1.20;1.20;;;;;;;13.70;49.41;98356.91;6971405;28;20234;-78
2023/12/23 13:23:42;;;;;;;1.20;1.20;;;;;;;13.38;49.73;98360.97;6969951;28;20312;-78
2023/12/23 13:27:06;;;;;;;1.20;1.20;;;;;;;13.55;49.89;98346.53;6962099;28;20332;-79
2023/12/23 13:30:27;;;;;;;1.17;1.17;;;;;;;14.30;47.87;98363.69;6967026;28;20209;-79
2023/12/23 13:33:49;;;;;;;1.50;1.40;;;;;;;13.95;48.61;98369.16;6967540;28;20298;-79
2023/12/23 13:37:12;;;;;;;1.60;1.60;;;;;;;13.89;49.26;98377.38;6961065;28;20204;-79
2023/12/23 13:40:33;;;;;;;1.50;1.40;;;;;;;14.22;48.13;98383.84;6960810;28;20225;-79
2023/12/23 13:43:55;;;;;;;1.30;1.30;;;;;;;14.23;48.17;98379.28;6965780;28;20231;-78
2023/12/23 13:47:16;;;;;;;1.20;1.20;;;;;;;13.63;48.88;98381.38;6957783;28;20304;-77
2023/12/23 13:50:38;;;;;;;1.57;1.57;;;;;;;13.79;48.61;98379.84;6965633;28;20194;-80
2023/12/23 13:54:01;;;;;;;1.00;1.00;;;;;;;13.89;48.47;98412.63;6966188;28;20222;-79
2023/12/23 13:57:25;;;;;;;1.17;1.17;;;;;;;13.95;48.20;98385.41;6967771;28;20214;-78
2023/12/23 14:00:47;;;;;;;1.20;1.20;;;;;;;14.16;47.92;98378.56;6965975;28;20381;-78
2023/12/23 14:04:08;;;;;;;1.17;1.17;;;;;;;13.66;49.21;98396.34;6967148;28;20314;-77
2023/12/23 14:07:30;;;;;;;1.17;1.17;;;;;;;13.56;49.75;98402.34;6954657;28;20285;-78
2023/12/23 14:10:53;;;;;;;1.43;1.30;;;;;;;13.75;49.49;98395.75;6966817;28;20220;-77
2023/12/23 14:14:15;;;;;;;1.13;1.13;;;;;;;13.97;49.33;98401.41;6973254;28;20740;-77
2023/12/23 14:17:36;;;;;;;1.10;1.10;;;;;;;14.03;48.85;98405.88;6951056;28;20275;-79
2023/12/23 14:20:58;;;;;;;1.43;1.37;;;;;;;13.63;49.58;98423.91;6961411;28;20318;-79
2023/12/23 14:24:20;;;;;;;3.27;1.60;;;;;;;13.46;50.65;98431.06;6968934;28;20705;-79
2023/12/23 14:27:43;;;;;;;9.80;6.13;;;;;;;13.43;51.19;98423.41;6973249;28;20283;-79
2023/12/23 14:31:05;;;;;;;41.40;20.57;;;;;;;13.29;52.28;98424.66;6972610;28;20210;-79
2023/12/23 14:34:26;;;;;;;16.30;7.87;;;;;;;13.26;52.61;98406.16;6973604;28;20297;-83
2023/12/23 14:37:47;;;;;;;127.60;54.07;;;;;;;13.04;53.07;98415.88;6973119;28;20344;-79
2023/12/23 14:41:09;;;;;;;2.40;2.20;;;;;;;12.99;52.58;98424.66;6972508;28;20377;-79
2023/12/23 14:44:32;;;;;;;2.40;1.90;;;;;;;13.41;51.72;98415.53;6971894;28;20299;-80
2023/12/23 14:47:53;;;;;;;1.27;1.27;;;;;;;13.24;51.92;98419.13;6972603;28;20210;-79
2023/12/23 14:51:15;;;;;;;1.50;1.43;;;;;;;13.42;51.14;98432.59;6972632;28;20697;-79
2023/12/23 14:54:36;;;;;;;1.53;1.43;;;;;;;13.09;52.02;98424.94;6973048;28;20365;-80
2023/12/23 14:57:58;;;;;;;4.90;3.83;;;;;;;13.46;51.16;98437.28;6971815;28;20783;-79
2023/12/23 15:01:21;;;;;;;3.10;2.77;;;;;;;13.43;50.93;98434.22;6971389;28;20238;-79
2023/12/23 15:04:42;;;;;;;1.43;1.43;;;;;;;13.08;51.98;98444.13;6970334;28;20293;-77
2023/12/23 15:08:04;;;;;;;1.77;1.67;;;;;;;13.12;52.11;98462.41;6973073;28;20341;-79
2023/12/23 15:11:26;;;;;;;1.57;1.50;;;;;;;13.32;50.99;98456.69;6971412;28;20309;-79
2023/12/23 15:14:50;;;;;;;1.60;1.50;;;;;;;12.87;52.39;98450.00;6972698;28;20213;-78
2023/12/23 15:18:13;;;;;;;1.70;1.60;;;;;;;13.21;51.93;98444.75;6969852;28;20244;-78
2023/12/23 15:21:34;;;;;;;1.63;1.53;;;;;;;13.60;51.00;98449.59;6970992;28;20316;-79
2023/12/23 15:24:56;;;;;;;1.43;1.33;;;;;;;13.60;50.83;98460.41;6970516;28;20289;-79
2023/12/23 15:28:18;;;;;;;1.40;1.40;;;;;;;13.99;49.79;98457.03;6971428;28;20345;-78
2023/12/23 15:31:39;;;;;;;1.50;1.50;;;;;;;12.88;52.16;98471.44;6970093;28;20712;-78
2023/12/23 15:35:02;;;;;;;1.30;1.30;;;;;;;13.23;51.94;98471.59;6971314;28;20238;-78
2023/12/23 15:38:24;;;;;;;1.60;1.40;;;;;;;12.96;52.50;98464.91;6965434;28;20336;-78
2023/12/23 15:41:45;;;;;;;2.13;2.03;;;;;;;12.92;52.40;98472.63;6969495;28;20264;-78
2023/12/23 15:45:08;;;;;;;2.50;2.30;;;;;;;13.42;51.21;98490.28;6961682;28;20210;-79
2023/12/23 15:48:29;;;;;;;1.47;1.40;;;;;;;13.20;51.28;98477.47;6968170;28;20244;-78
2023/12/23 15:51:52;;;;;;;1.20;1.20;;;;;;;13.16;51.85;98484.41;6966874;28;20872;-80